Time;durP1;ratioP1;P1;durP2;ratioP2;P2;SDS_P1;SDS_P2;PMS_P1;PMS_P2;Temp;Humidity;BMP_temperature;BMP_pressure;BME280_temperature;BME280_humidity;BME280_pressure;Samples;Min_cycle;Max_cycle;Signal;HPM_P1;HPM_P2
2023/01/13 00:00:15;;;;;;;37.70;16.80;;;;;;;-4.99;89.00;100507.53;108670;1254;71301;-81
2023/01/13 00:02:41;;;;;;;35.80;15.10;;;;;;;-5.01;89.13;100503.46;108340;1254;73533;-81
2023/01/13 00:05:09;;;;;;;27.40;13.60;;;;;;;-5.03;89.28;100504.58;107882;1254;60418;-79
2023/01/13 00:07:38;;;;;;;36.10;15.30;;;;;;;-5.05;89.57;100510.85;107521;1254;61169;-79
2023/01/13 00:10:09;;;;;;;31.10;14.50;;;;;;;-4.99;89.40;100511.50;106661;1254;74715;-77
2023/01/13 00:12:40;;;;;;;38.90;14.30;;;;;;;-4.93;89.11;100513.58;106877;1256;72640;-78
2023/01/13 00:15:08;;;;;;;35.90;15.60;;;;;;;-4.96;89.42;100517.46;107928;1254;71498;-76
2023/01/13 00:17:35;;;;;;;33.40;15.00;;;;;;;-4.99;89.57;100517.20;107884;1258;61319;-77
2023/01/13 00:20:02;;;;;;;38.40;17.90;;;;;;;-5.02;89.68;100513.16;106783;1253;61606;-75
2023/01/13 00:22:32;;;;;;;33.00;16.80;;;;;;;-4.97;89.91;100514.73;106502;1254;74774;-75
2023/01/13 00:25:00;;;;;;;26.30;12.10;;;;;;;-4.84;89.46;100515.52;106574;1254;71222;-76
2023/01/13 00:27:27;;;;;;;31.50;14.40;;;;;;;-4.77;89.24;100518.21;106225;1254;73728;-75
2023/01/13 00:29:54;;;;;;;30.80;14.50;;;;;;;-4.85;89.14;100517.27;107013;1254;60451;-77
2023/01/13 00:32:21;;;;;;;36.10;14.30;;;;;;;-4.94;89.33;100518.77;107394;1258;63191;-76
2023/01/13 00:34:48;;;;;;;32.80;14.40;;;;;;;-5.01;89.56;100522.99;107072;1254;74850;-77
2023/01/13 00:37:15;;;;;;;27.90;13.30;;;;;;;-4.97;89.49;100524.23;107615;1254;72333;-77
2023/01/13 00:39:42;;;;;;;37.00;15.20;;;;;;;-4.88;89.34;100519.61;107718;1255;73432;-76
2023/01/13 00:44:55;;;;;;;39.20;16.50;;;;;;;-4.98;89.97;100517.52;107367;1256;60387;-78
2023/01/13 00:47:24;;;;;;;32.90;14.40;;;;;;;-5.01;89.92;100520.55;107257;1254;73106;-75
2023/01/13 00:49:51;;;;;;;31.60;15.50;;;;;;;-5.02;90.23;100515.08;106734;1254;69173;-76
2023/01/13 00:52:18;;;;;;;31.40;12.90;;;;;;;-4.97;90.06;100516.44;107249;1256;73858;-78
2023/01/13 00:54:45;;;;;;;38.00;13.90;;;;;;;-4.96;89.94;100505.20;106976;1254;61625;-74
2023/01/13 00:57:14;;;;;;;39.40;14.50;;;;;;;-4.99;90.63;100502.89;108762;1253;61138;-76
2023/01/13 00:59:41;;;;;;;37.20;15.90;;;;;;;-5.03;90.58;100497.46;109000;1253;74564;-78
2023/01/13 01:02:09;;;;;;;35.80;14.70;;;;;;;-5.04;90.74;100495.62;108930;1253;71850;-79
2023/01/13 01:04:36;;;;;;;38.80;15.40;;;;;;;-4.93;90.56;100492.48;108775;1253;73403;-78
2023/01/13 01:07:03;;;;;;;28.30;14.00;;;;;;;-4.82;90.14;100494.71;108925;1253;60448;-80
2023/01/13 01:09:33;;;;;;;34.00;15.60;;;;;;;-4.83;90.36;100493.02;108462;1254;60466;-78
2023/01/13 01:12:00;;;;;;;48.70;16.80;;;;;;;-4.86;90.49;100492.77;107981;1253;75921;-78
2023/01/13 01:14:27;;;;;;;38.00;15.80;;;;;;;-4.87;90.62;100494.73;109037;1251;71227;-83
2023/01/13 01:16:54;;;;;;;34.20;14.40;;;;;;;-4.81;90.56;100492.63;109473;1253;70661;-82
2023/01/13 01:19:21;;;;;;;45.30;14.40;;;;;;;-4.69;90.24;100482.88;109242;1253;60660;-79
2023/01/13 01:21:48;;;;;;;38.60;15.80;;;;;;;-4.68;90.36;100480.56;109483;1252;61118;-81
2023/01/13 01:24:15;;;;;;;43.70;15.60;;;;;;;-4.66;90.71;100483.28;109215;1253;74944;-78
2023/01/13 01:26:42;;;;;;;39.60;16.70;;;;;;;-4.63;91.04;100478.52;109367;1256;71099;-79
2023/01/13 01:29:12;;;;;;;33.70;16.30;;;;;;;-4.64;90.85;100472.50;109235;1253;73505;-80
2023/01/13 01:31:39;;;;;;;37.60;15.40;;;;;;;-4.56;90.29;100474.46;109239;1252;63121;-78
2023/01/13 01:34:06;;;;;;;44.00;17.10;;;;;;;-4.45;89.98;100476.84;109016;1252;61270;-77
2023/01/13 01:36:34;;;;;;;36.50;15.80;;;;;;;-4.45;90.23;100470.27;109223;1253;72096;-75
2023/01/13 01:39:02;;;;;;;36.20;14.80;;;;;;;-4.48;90.61;100468.80;108507;1253;71565;-77
2023/01/13 01:41:31;;;;;;;28.90;13.90;;;;;;;-4.50;90.59;100464.94;107210;1256;71359;-76
2023/01/13 01:43:59;;;;;;;47.60;15.70;;;;;;;-4.58;90.45;100466.76;107484;1257;61686;-75
2023/01/13 01:46:42;;;;;;;34.70;14.50;;;;;;;-4.56;90.25;100466.15;108337;1253;60422;-78
2023/01/13 01:49:21;;;;;;;50.10;18.10;;;;;;;-4.61;90.27;100463.58;109229;1253;74150;-77
2023/01/13 01:51:51;;;;;;;37.20;15.10;;;;;;;-4.70;90.62;100461.80;109098;1253;69248;-80
2023/01/13 01:54:25;;;;;;;37.80;15.60;;;;;;;-4.75;90.96;100461.12;109363;1252;74606;-78
2023/01/13 01:56:52;;;;;;;50.20;16.80;;;;;;;-4.71;91.13;100464.78;109149;1252;63110;-79
2023/01/13 01:59:18;;;;;;;42.30;16.60;;;;;;;-4.55;90.93;100461.83;109129;1253;58193;-75
2023/01/13 02:01:46;;;;;;;39.70;16.10;;;;;;;-4.45;90.95;100458.85;108858;1253;74854;-75
2023/01/13 02:04:22;;;;;;;42.50;17.30;;;;;;;-4.42;91.05;100455.82;108923;1253;71160;-74
2023/01/13 02:06:49;;;;;;;48.60;18.20;;;;;;;-4.44;90.89;100454.85;109008;1252;73324;-76
2023/01/13 02:09:16;;;;;;;42.70;16.80;;;;;;;-4.42;90.96;100455.82;108768;1259;60252;-75
2023/01/13 02:14:29;;;;;;;41.70;16.60;;;;;;;-4.24;90.06;100447.70;108534;1253;73470;-78
2023/01/13 02:17:13;;;;;;;35.50;15.40;;;;;;;-4.19;89.81;100445.80;108457;1252;72208;-79
2023/01/13 02:20:31;;;;;;;33.40;16.00;;;;;;;-4.25;90.04;100444.80;108314;1252;71841;-76
2023/01/13 02:26:49;;;;;;;42.20;16.40;;;;;;;-4.17;90.45;100449.85;105388;1264;61431;-75
2023/01/13 02:32:50;;;;;;;34.80;17.10;;;;;;;-4.08;89.15;100441.05;105770;1259;71560;-75
2023/01/13 02:35:24;;;;;;;35.60;15.40;;;;;;;-4.19;89.13;100436.63;105709;1257;73839;-76
2023/01/13 02:37:51;;;;;;;34.60;16.80;;;;;;;-4.32;88.86;100437.11;105725;1253;60636;-76
2023/01/13 02:40:25;;;;;;;29.90;14.50;;;;;;;-4.41;88.97;100436.92;105448;1253;61578;-75
2023/01/13 02:45:58;;;;;;;40.90;16.60;;;;;;;-4.46;88.76;100431.57;105419;1258;69254;-76
2023/01/13 02:48:26;;;;;;;39.30;16.80;;;;;;;-4.54;89.24;100431.31;105839;1253;75144;-71
2023/01/13 02:50:58;;;;;;;33.60;18.20;;;;;;;-4.58;89.30;100429.77;105820;1253;62054;-77
2023/01/13 02:53:34;;;;;;;50.70;19.30;;;;;;;-4.63;89.21;100432.70;105841;1253;60487;-76
2023/01/13 02:56:02;;;;;;;38.10;17.60;;;;;;;-4.67;89.22;100431.48;106012;1253;75975;-76
2023/01/13 02:58:29;;;;;;;39.90;18.60;;;;;;;-4.59;89.03;100433.59;105755;1253;73275;-74
2023/01/13 03:00:56;;;;;;;36.00;16.30;;;;;;;-4.47;89.02;100426.94;105404;1257;73678;-74
2023/01/13 03:03:23;;;;;;;36.00;14.90;;;;;;;-4.45;89.26;100425.46;105900;1253;61574;-72
2023/01/13 03:05:53;;;;;;;41.30;15.40;;;;;;;-4.47;89.28;100425.21;105856;1256;62057;-79
2023/01/13 03:08:22;;;;;;;40.10;17.00;;;;;;;-4.52;89.24;100427.13;106413;1253;74381;-78
2023/01/13 03:11:10;;;;;;;30.50;15.10;;;;;;;-4.53;89.29;100427.84;106119;1252;72422;-76
2023/01/13 03:14:05;;;;;;;27.60;14.70;;;;;;;-4.38;89.11;100424.70;106063;1255;72505;-75
2023/01/13 03:17:08;;;;;;;35.40;15.10;;;;;;;-4.29;88.75;100423.85;106872;1253;60282;-76
2023/01/13 03:20:01;;;;;;;25.80;12.50;;;;;;;-4.33;88.79;100425.58;106214;1253;61161;-73
2023/01/13 03:22:39;;;;;;;39.20;15.70;;;;;;;-4.44;88.71;100429.77;105786;1258;75917;-75
2023/01/13 03:25:10;;;;;;;30.40;14.30;;;;;;;-4.52;88.72;100425.91;105866;1252;70929;-75
2023/01/13 03:27:51;;;;;;;35.70;14.90;;;;;;;-4.47;88.59;100424.50;105712;1256;73619;-76
2023/01/13 03:30:20;;;;;;;33.70;16.50;;;;;;;-4.40;88.84;100420.80;105458;1255;61618;-78
2023/01/13 03:33:01;;;;;;;34.50;15.50;;;;;;;-4.41;89.13;100422.73;105850;1253;60345;-77
2023/01/13 03:35:37;;;;;;;32.30;16.30;;;;;;;-4.42;89.14;100423.10;105720;1253;76019;-77
2023/01/13 03:38:07;;;;;;;35.50;15.60;;;;;;;-4.43;89.05;100422.63;106126;1258;71123;-77
2023/01/13 03:40:38;;;;;;;34.70;16.50;;;;;;;-4.35;88.78;100420.97;105930;1253;73498;-78
2023/01/13 03:45:56;;;;;;;40.30;18.40;;;;;;;-4.34;88.59;100415.74;106300;1253;61294;-74
2023/01/13 03:48:25;;;;;;;33.40;15.90;;;;;;;-4.44;88.92;100416.45;107556;1253;74886;-76
2023/01/13 03:50:54;;;;;;;36.00;17.60;;;;;;;-4.49;89.18;100421.99;107896;1253;72952;-74
2023/01/13 03:53:52;;;;;;;32.70;17.60;;;;;;;-4.50;89.31;100422.73;108373;1253;71362;-75
2023/01/13 03:56:27;;;;;;;38.50;16.60;;;;;;;-4.35;88.70;100420.77;108022;1253;60334;-75
2023/01/13 03:58:54;;;;;;;39.10;17.60;;;;;;;-4.30;89.01;100421.98;108223;1253;61405;-78
2023/01/13 04:01:23;;;;;;;39.10;20.00;;;;;;;-4.30;89.24;100424.23;106481;1253;73492;-76
2023/01/13 04:04:14;;;;;;;41.40;18.70;;;;;;;-4.32;89.29;100423.62;105780;1253;71970;-74
2023/01/13 04:06:44;;;;;;;44.00;19.50;;;;;;;-4.35;89.36;100421.66;105339;1253;75051;-75
2023/01/13 04:09:14;;;;;;;35.70;18.50;;;;;;;-4.28;89.00;100423.33;105770;1253;61338;-75
2023/01/13 04:11:48;;;;;;;38.70;18.20;;;;;;;-4.21;88.94;100420.78;105944;1256;60345;-76
2023/01/13 04:14:15;;;;;;;;;;;;;;;-4.23;88.99;100423.61;105791;1258;75952;-75
2023/01/13 04:16:41;;;;;;;38.40;18.90;;;;;;;-4.30;88.80;100419.89;106254;1260;70417;-76
2023/01/13 04:19:08;;;;;;;42.70;20.20;;;;;;;-4.37;89.01;100423.27;106352;1253;70934;-75
2023/01/13 04:21:35;;;;;;;38.80;18.60;;;;;;;-4.37;89.07;100421.72;106462;1257;62083;-77
2023/01/13 04:24:02;;;;;;;39.70;19.10;;;;;;;-4.27;88.78;100425.16;105606;1253;62551;-78
2023/01/13 04:26:29;;;;;;;34.50;18.90;;;;;;;-4.25;88.70;100417.66;105890;1253;74870;-77
2023/01/13 04:28:55;;;;;;;39.70;18.60;;;;;;;-4.28;89.07;100413.44;106094;1253;72232;-78
2023/01/13 04:31:22;;;;;;;36.40;20.00;;;;;;;-4.30;88.93;100419.58;106018;1258;71371;-80
2023/01/13 04:33:49;;;;;;;39.30;18.30;;;;;;;-4.33;89.05;100418.30;106064;1253;61635;-78
2023/01/13 04:36:18;;;;;;;41.90;19.10;;;;;;;-4.29;88.90;100416.96;106196;1253;62656;-80
2023/01/13 04:38:45;;;;;;;35.20;18.00;;;;;;;-4.18;88.56;100421.71;106081;1253;73448;-77
2023/01/13 04:41:12;;;;;;;47.30;20.40;;;;;;;-4.17;88.67;100422.88;107013;1253;70721;-80
2023/01/13 04:43:39;;;;;;;36.10;19.20;;;;;;;-4.22;88.49;100423.06;106080;1256;73638;-81
2023/01/13 04:46:06;;;;;;;43.40;20.10;;;;;;;-4.27;88.64;100419.65;106375;1256;60526;-79
2023/01/13 04:48:33;;;;;;;35.00;18.30;;;;;;;-4.31;88.72;100420.46;109156;1252;61395;-80
2023/01/13 04:50:59;;;;;;;32.10;18.00;;;;;;;-4.20;88.57;100418.50;106347;1252;74841;-81
2023/01/13 04:53:26;;;;;;;41.70;19.60;;;;;;;-4.08;88.26;100417.71;105643;1253;70589;-81
2023/01/13 04:55:53;;;;;;;42.20;19.30;;;;;;;-4.08;88.32;100419.10;105841;1258;73169;-78
2023/01/13 04:58:21;;;;;;;36.70;18.60;;;;;;;-4.08;88.47;100420.67;105939;1254;60531;-81
2023/01/13 05:00:49;;;;;;;36.80;19.60;;;;;;;-4.11;88.40;100421.11;106028;1253;62314;-80
2023/01/13 05:03:17;;;;;;;39.70;18.80;;;;;;;-4.14;88.31;100423.82;106226;1258;75483;-82
2023/01/13 05:05:44;;;;;;;38.90;18.60;;;;;;;-4.09;87.99;100426.94;106864;1258;69706;-81
2023/01/13 05:08:11;;;;;;;39.70;21.90;;;;;;;-4.06;87.75;100426.28;106071;1256;74154;-81
2023/01/13 05:10:38;;;;;;;32.70;19.50;;;;;;;-4.10;87.90;100428.88;107752;1252;61410;-78
2023/01/13 05:18:38;;;;;;;30.00;17.50;;;;;;;-4.22;88.09;100436.05;105877;1257;71361;-77
2023/01/13 05:25:20;;;;;;;39.00;18.10;;;;;;;-4.16;87.91;100438.60;105856;1253;73471;-77
2023/01/13 05:26:38;;;;;;;34.60;18.20;;;;;;;-4.26;88.31;100435.36;107022;1253;61193;-76
2023/01/13 05:29:06;;;;;;;40.30;19.10;;;;;;;-4.31;88.43;100432.39;107982;1258;75753;-74
2023/01/13 05:31:33;;;;;;;32.50;15.70;;;;;;;-4.27;88.42;100435.20;107664;1255;68435;-72
2023/01/13 05:34:00;;;;;;;36.00;17.30;;;;;;;-4.17;88.04;100432.58;106025;1258;74525;-75
2023/01/13 05:36:26;;;;;;;32.20;18.90;;;;;;;-4.18;88.01;100428.30;105833;1253;60883;-75
2023/01/13 05:38:53;;;;;;;36.60;18.90;;;;;;;-4.21;88.27;100436.70;105860;1259;60431;-73
2023/01/13 05:44:06;;;;;;;36.80;17.40;;;;;;;-4.30;88.36;100431.16;106004;1253;72249;-78
2023/01/13 05:46:33;;;;;;;31.90;16.00;;;;;;;-4.22;88.14;100433.09;105930;1253;74851;-76
2023/01/13 05:49:00;;;;;;;28.60;18.10;;;;;;;-4.18;88.21;100433.48;105730;1256;61697;-74
2023/01/13 05:51:27;;;;;;;37.00;17.90;;;;;;;-4.23;88.38;100436.77;105672;1256;62739;-73
2023/01/13 05:53:54;;;;;;;33.60;17.30;;;;;;;-4.29;88.45;100442.54;105499;1253;73709;-75
2023/01/13 05:56:21;;;;;;;35.80;18.70;;;;;;;-4.33;88.29;100449.95;105719;1253;72307;-74
2023/01/13 05:58:48;;;;;;;41.40;18.60;;;;;;;-4.28;88.28;100448.89;105476;1256;73433;-76
2023/01/13 06:01:15;;;;;;;46.80;20.60;;;;;;;-4.27;88.40;100447.50;105384;1255;60590;-75
2023/01/13 06:03:42;;;;;;;34.50;19.00;;;;;;;-4.28;88.70;100448.20;106230;1259;61226;-79
2023/01/13 06:06:09;;;;;;;37.40;20.60;;;;;;;-4.28;88.95;100446.98;106133;1253;74720;-79
2023/01/13 06:08:36;;;;;;;39.80;19.20;;;;;;;-4.29;88.75;100453.63;105804;1258;71499;-79
2023/01/13 06:11:05;;;;;;;35.10;18.00;;;;;;;-4.25;88.44;100451.36;105543;1256;72764;-81
2023/01/13 06:13:32;;;;;;;36.40;17.80;;;;;;;-4.20;88.30;100448.60;106175;1256;60504;-81
2023/01/13 06:15:59;;;;;;;33.70;19.20;;;;;;;-4.23;88.50;100448.55;106373;1256;60824;-82
2023/01/13 06:18:26;;;;;;;36.00;17.90;;;;;;;-4.25;88.87;100450.00;107987;1253;76177;-78
2023/01/13 06:20:53;;;;;;;35.40;17.70;;;;;;;-4.25;88.84;100451.75;107391;1253;70978;-81
2023/01/13 06:23:20;;;;;;;33.00;17.50;;;;;;;-4.25;88.76;100448.46;106095;1257;73471;-81
2023/01/13 06:26:16;;;;;;;36.80;20.50;;;;;;;-4.13;88.64;100448.87;106151;1258;63226;-84
2023/01/13 06:28:43;;;;;;;42.20;19.70;;;;;;;-4.06;88.23;100446.15;106437;1253;62136;-83
2023/01/13 06:31:09;;;;;;;31.30;18.20;;;;;;;-4.07;88.59;100451.39;109114;1254;74536;-80
2023/01/13 06:33:39;;;;;;;37.70;19.20;;;;;;;-4.06;88.66;100453.10;107961;1253;71297;-78
2023/01/13 06:36:11;;;;;;;31.50;19.10;;;;;;;-4.07;88.56;100454.88;106598;1258;74697;-78
2023/01/13 06:38:39;;;;;;;38.50;20.20;;;;;;;-4.09;88.46;100452.20;105576;1253;61756;-79
2023/01/13 06:41:06;;;;;;;34.80;19.80;;;;;;;-3.98;88.26;100450.36;105909;1253;61440;-77
2023/01/13 06:43:33;;;;;;;34.80;19.00;;;;;;;-3.91;87.98;100448.36;105859;1253;74402;-78
2023/01/13 06:46:01;;;;;;;34.70;18.40;;;;;;;-3.92;88.01;100449.30;105658;1253;72339;-79
2023/01/13 06:48:31;;;;;;;44.80;20.60;;;;;;;-3.99;88.03;100440.38;105686;1253;75022;-78
2023/01/13 06:50:58;;;;;;;34.80;18.00;;;;;;;-4.04;88.18;100442.80;106890;1253;60443;-79
2023/01/13 06:53:25;;;;;;;31.30;17.20;;;;;;;-3.99;87.95;100447.30;106733;1253;61594;-78
2023/01/13 06:55:52;;;;;;;32.60;17.30;;;;;;;-3.90;87.95;100449.23;105932;1253;76028;-79
2023/01/13 06:58:19;;;;;;;34.60;17.50;;;;;;;-3.94;88.05;100449.52;106069;1258;68847;-79
2023/01/13 07:00:50;;;;;;;33.90;18.90;;;;;;;-4.01;88.12;100448.41;105817;1256;74095;-79
2023/01/13 07:03:17;;;;;;;36.70;19.70;;;;;;;-4.03;88.28;100445.02;105827;1253;60436;-81
2023/01/13 07:05:50;;;;;;;36.20;19.20;;;;;;;-4.02;88.49;100443.27;105718;1255;61248;-77
2023/01/13 07:08:17;;;;;;;33.50;17.90;;;;;;;-3.93;88.39;100446.22;105861;1253;71767;-80
2023/01/13 07:10:44;;;;;;;35.10;17.90;;;;;;;-3.84;87.83;100453.80;105822;1253;72354;-80
2023/01/13 07:16:00;;;;;;;30.80;16.60;;;;;;;-3.92;88.07;100453.47;105975;1254;60444;-78
2023/01/13 07:18:30;;;;;;;26.90;14.90;;;;;;;-3.93;88.18;100452.63;105835;1256;62418;-75
2023/01/13 07:21:00;;;;;;;34.80;19.10;;;;;;;-3.95;87.91;100452.84;107573;1254;74510;-85
2023/01/13 07:23:28;;;;;;;34.90;17.70;;;;;;;-3.82;87.80;100455.48;108520;1254;72882;-85
2023/01/13 07:25:57;;;;;;;30.80;17.40;;;;;;;-3.72;87.62;100462.23;109317;1254;71879;-84
2023/01/13 07:28:28;;;;;;;31.90;17.50;;;;;;;-3.72;87.70;100465.33;109301;1253;60234;-85
2023/01/13 07:30:56;;;;;;;34.80;21.10;;;;;;;-3.76;87.74;100467.35;107293;1256;280781;-86
2023/01/13 07:35:04;;;;;;;42.60;23.50;;;;;;;-3.74;87.68;100461.58;105858;1282;602260;-84
2023/01/13 07:37:33;;;;;;;44.20;22.90;;;;;;;-3.59;87.46;100461.00;108515;1267;63182;-83
2023/01/13 07:40:01;;;;;;;43.00;23.40;;;;;;;-3.49;87.22;100462.30;108630;1266;59618;-84
2023/01/13 07:45:14;;;;;;;37.30;20.50;;;;;;;-3.47;87.36;100460.66;108450;1264;71417;-85
2023/01/13 07:47:42;;;;;;;41.40;21.50;;;;;;;-3.44;87.27;100469.06;107522;1262;342569;-84
2023/01/13 07:50:10;;;;;;;37.60;20.10;;;;;;;-3.43;87.15;100466.59;109485;1251;60026;-84
2023/01/13 07:52:38;;;;;;;46.00;22.70;;;;;;;-3.34;86.52;100465.20;108204;1251;61401;-83
2023/01/13 07:55:06;;;;;;;43.70;22.00;;;;;;;-3.28;86.25;100465.29;108260;1251;74136;-84
2023/01/13 07:57:35;;;;;;;37.00;21.50;;;;;;;-3.30;86.22;100464.67;107894;1251;71216;-82
2023/01/13 08:00:03;;;;;;;42.50;23.50;;;;;;;-3.31;86.45;100464.41;107368;1254;73540;-86
2023/01/13 08:02:30;;;;;;;46.90;23.40;;;;;;;-3.34;86.41;100467.77;106803;1254;60605;-84
2023/01/13 08:04:57;;;;;;;42.00;23.50;;;;;;;-3.37;86.18;100463.39;106464;1258;61433;-84
2023/01/13 08:07:24;;;;;;;42.50;22.90;;;;;;;-3.32;85.96;100463.73;106357;1254;71684;-85
2023/01/13 08:09:52;;;;;;;40.80;21.80;;;;;;;-3.28;85.98;100460.27;106434;1259;72237;-86
2023/01/13 08:15:18;;;;;;;42.20;23.60;;;;;;;-3.29;86.37;100455.27;106527;1256;59567;-85
2023/01/13 08:17:45;;;;;;;40.00;21.60;;;;;;;-3.31;86.30;100456.05;106613;1254;60325;-85
2023/01/13 08:20:12;;;;;;;38.30;20.80;;;;;;;-3.30;86.38;100457.05;106335;1254;75368;-86
2023/01/13 08:22:40;;;;;;;35.10;21.30;;;;;;;-3.20;86.18;100450.92;107091;1252;71327;-87
2023/01/13 08:25:11;;;;;;;38.60;21.30;;;;;;;-3.08;86.02;100446.61;107155;1251;74654;-89
2023/01/13 08:32:07;;;;;;;37.50;21.70;;;;;;;-3.10;85.90;100452.43;108782;1251;61181;-88
2023/01/13 08:35:33;;;;;;;42.00;22.30;;;;;;;-3.13;85.89;100454.13;108955;1251;73311;31
2023/01/13 08:38:02;;;;;;;40.80;21.30;;;;;;;-3.10;85.63;100453.30;108694;1267;69608;-87
2023/01/13 08:40:31;;;;;;;41.90;21.90;;;;;;;-2.99;85.23;100449.56;108017;1263;71747;-85
2023/01/13 08:43:01;;;;;;;39.90;22.80;;;;;;;-2.93;85.12;100443.95;108268;1262;57820;-88
2023/01/13 08:45:30;;;;;;;47.30;23.80;;;;;;;-2.97;85.24;100442.35;108754;1269;57922;-89
2023/01/13 08:47:57;;;;;;;47.80;24.30;;;;;;;-2.99;85.48;100437.23;108806;1261;72405;-87
2023/01/13 08:50:40;;;;;;;43.50;23.70;;;;;;;-2.99;85.46;100439.48;108601;1262;70982;-89
2023/01/13 08:53:11;;;;;;;38.20;22.30;;;;;;;-2.95;85.23;100439.52;108101;1262;73846;-88
2023/01/13 08:55:39;;;;;;;37.10;22.70;;;;;;;-2.85;84.82;100439.07;106696;1260;61188;-86
2023/01/13 08:58:06;;;;;;;40.20;24.10;;;;;;;-2.79;84.70;100439.65;106224;1266;61447;-82
2023/01/13 09:00:42;;;;;;;43.30;23.30;;;;;;;-2.80;84.87;100436.41;106611;1260;73700;-88
2023/01/13 09:03:14;;;;;;;38.80;25.10;;;;;;;-2.82;84.65;100433.60;107458;1262;71234;-90
2023/01/13 09:06:07;;;;;;;40.00;22.90;;;;;;;-2.87;84.57;100437.44;108661;1257;73536;-89
2023/01/13 09:08:46;;;;;;;40.70;23.40;;;;;;;-2.80;84.60;100426.55;108787;1257;59613;-87
2023/01/13 09:14:03;;;;;;;43.10;23.40;;;;;;;-2.63;84.21;100432.05;107045;1257;74523;-86
2023/01/13 09:16:30;;;;;;;43.90;25.70;;;;;;;-2.61;84.30;100428.48;106233;1266;70895;-87
2023/01/13 09:19:00;;;;;;;41.20;25.10;;;;;;;-2.53;84.62;100422.61;107608;1257;73876;-87
2023/01/13 09:21:27;;;;;;;45.30;25.60;;;;;;;-2.41;84.58;100424.14;108732;1260;59023;-90
2023/01/13 09:24:08;;;;;;;38.40;22.90;;;;;;;-2.20;84.00;100424.74;107023;1261;61256;-85
2023/01/13 09:26:36;;;;;;;38.90;23.30;;;;;;;-1.99;83.84;100422.77;107463;1257;73987;-87
2023/01/13 09:29:04;;;;;;;43.20;23.80;;;;;;;-1.91;83.47;100423.27;108552;1257;70757;-87
2023/01/13 09:31:34;;;;;;;41.20;25.20;;;;;;;-1.92;82.61;100425.91;106901;1263;71940;-91
2023/01/13 09:37:43;;;;;;;41.50;23.90;;;;;;;-2.20;82.01;100428.05;107517;1259;60965;-92
2023/01/13 09:43:52;;;;;;;41.80;23.60;;;;;;;-2.23;82.08;100418.64;103790;1270;69173;-90
2023/01/13 09:49:52;;;;;;;44.20;25.60;;;;;;;-2.31;82.63;100407.05;106924;1269;958885;-91
2023/01/13 09:53:02;;;;;;;47.20;23.90;;;;;;;-2.29;82.73;100408.33;108203;1270;61038;-90
2023/01/13 09:59:50;;;;;;;42.50;25.90;;;;;;;-1.95;82.43;100396.37;104270;1267;66416;-91
2023/01/13 10:03:26;;;;;;;39.70;24.90;;;;;;;-1.89;82.40;100399.38;107718;1270;71482;-91
2023/01/13 10:06:34;;;;;;;43.50;25.50;;;;;;;-1.92;81.87;100398.11;107078;1272;59744;-89
2023/01/13 10:09:26;;;;;;;43.60;24.00;;;;;;;-1.95;81.91;100391.14;107836;1271;61183;-89
2023/01/13 10:14:54;;;;;;;34.10;20.20;;;;;;;-1.67;81.55;100383.55;107597;1271;69169;-84
2023/01/13 10:17:50;;;;;;;33.00;21.30;;;;;;;-1.63;81.45;100383.19;105389;1277;72051;-78
2023/01/13 10:20:40;;;;;;;31.50;20.40;;;;;;;-1.61;81.11;100384.64;105973;1271;59844;-89
2023/01/13 10:23:12;;;;;;;37.90;22.40;;;;;;;-1.67;80.47;100385.46;106618;1271;62448;-91
2023/01/13 10:26:38;;;;;;;38.00;23.50;;;;;;;-1.79;80.67;100389.00;105766;1271;72281;-85
2023/01/13 10:29:27;;;;;;;36.50;21.90;;;;;;;-1.82;80.80;100390.02;105726;1273;71271;-88
2023/01/13 10:31:58;;;;;;;38.20;21.50;;;;;;;-1.69;80.80;100387.16;105351;1276;73340;-84
2023/01/13 10:34:26;;;;;;;31.20;21.40;;;;;;;-1.63;80.56;100382.50;105149;1278;60207;-84
2023/01/13 10:37:07;;;;;;;39.40;25.30;;;;;;;-1.69;80.71;100379.31;105217;1271;63293;-83
2023/01/13 10:39:54;;;;;;;37.20;24.70;;;;;;;-1.70;80.54;100377.10;104934;1274;72773;-84
2023/01/13 10:42:22;;;;;;;37.50;23.40;;;;;;;-1.76;80.56;100374.99;105170;1277;70019;-84
2023/01/13 10:44:57;;;;;;;36.60;21.50;;;;;;;-1.80;80.86;100371.67;105073;1271;74409;-87
2023/01/13 10:47:35;;;;;;;37.20;22.10;;;;;;;-1.79;80.62;100366.80;105899;1273;59869;-86
2023/01/13 10:50:10;;;;;;;29.70;18.70;;;;;;;-1.74;80.39;100356.98;107970;1270;61365;-89
2023/01/13 11:07:03;;;;;;;30.70;19.50;;;;;;;-1.67;80.28;100364.79;105375;1270;954568;-86
2023/01/13 11:09:38;;;;;;;31.20;18.20;;;;;;;-1.63;80.38;100364.80;105774;1273;73454;-87
2023/01/13 11:12:29;;;;;;;36.40;22.10;;;;;;;-1.71;79.95;100359.45;105008;1274;71308;-81
2023/01/13 11:15:02;;;;;;;35.00;20.00;;;;;;;-1.78;80.33;100359.29;104652;1279;73896;-83
2023/01/13 11:17:44;;;;;;;43.80;24.80;;;;;;;-1.83;80.51;100363.32;105139;1282;60395;-78
2023/01/13 11:20:11;;;;;;;28.80;17.60;;;;;;;-1.86;80.57;100364.33;105176;1273;62327;-83
2023/01/13 11:22:43;;;;;;;32.10;21.00;;;;;;;-1.88;80.67;100361.67;105194;1274;75200;-83
2023/01/13 11:25:23;;;;;;;34.60;21.20;;;;;;;-1.82;80.34;100361.34;104674;1273;72256;-82
2023/01/13 11:28:05;;;;;;;28.20;20.00;;;;;;;-1.85;80.15;100362.89;104721;1273;72890;-86
2023/01/13 11:31:11;;;;;;;33.00;19.70;;;;;;;-1.98;80.42;100362.98;106162;1273;59563;-84
2023/01/13 11:34:03;;;;;;;34.90;22.00;;;;;;;-2.06;80.64;100361.47;106944;1273;59970;-83
2023/01/13 11:36:38;;;;;;;30.30;19.40;;;;;;;-2.07;81.06;100360.98;107619;1273;73314;-84
2023/01/13 11:39:25;;;;;;;29.20;18.40;;;;;;;-1.99;80.98;100357.13;107253;1273;71413;-83
2023/01/13 11:42:19;;;;;;;26.20;17.20;;;;;;;-1.87;80.80;100350.66;106338;1273;73967;-83
2023/01/13 11:44:53;;;;;;;25.60;17.40;;;;;;;-1.92;80.69;100350.56;106330;1273;60216;-84
2023/01/13 11:47:22;;;;;;;31.60;18.70;;;;;;;-1.98;80.73;100348.92;105199;1276;61716;-83
2023/01/13 11:49:53;;;;;;;32.70;20.80;;;;;;;-2.03;80.83;100352.98;105443;1274;75231;-85
2023/01/13 11:52:46;;;;;;;32.80;19.40;;;;;;;-2.07;80.99;100350.91;104985;1273;69275;-85
2023/01/13 11:55:27;;;;;;;31.70;18.50;;;;;;;-2.10;81.05;100352.77;104842;1276;72772;-83
2023/01/13 11:58:13;;;;;;;30.40;18.80;;;;;;;-1.98;80.85;100361.80;104992;1273;62465;-83
2023/01/13 12:01:24;;;;;;;28.50;17.10;;;;;;;-1.98;80.92;100355.34;105820;1283;61452;-84
2023/01/13 12:04:04;;;;;;;29.60;18.90;;;;;;;-2.08;81.13;100355.65;105274;1273;75508;-85
2023/01/13 12:06:39;;;;;;;26.90;17.90;;;;;;;-2.16;81.32;100359.66;106623;1279;70442;-85
2023/01/13 12:09:24;;;;;;;29.10;18.20;;;;;;;-2.20;81.32;100363.66;106752;1276;74176;-83
2023/01/13 12:12:18;;;;;;;31.10;18.80;;;;;;;-2.23;81.47;100363.28;107099;1277;60433;-83
2023/01/13 12:15:14;;;;;;;29.70;18.60;;;;;;;-2.09;81.45;100367.02;106681;1276;63090;-83
2023/01/13 12:18:20;;;;;;;33.30;18.90;;;;;;;-2.05;81.24;100365.05;107008;1276;76043;-84
2023/01/13 12:21:08;;;;;;;33.70;20.50;;;;;;;-2.13;81.70;100361.29;105873;1282;69895;-81
2023/01/13 12:23:44;;;;;;;37.40;21.00;;;;;;;-2.16;82.00;100361.41;106077;1276;73737;-85
2023/01/13 12:26:14;;;;;;;37.70;21.40;;;;;;;-2.16;82.19;100360.21;105543;1276;59518;-83
2023/01/13 12:29:14;;;;;;;34.10;20.40;;;;;;;-2.12;82.22;100357.95;106071;1275;61431;-81
2023/01/13 12:31:41;;;;;;;28.40;17.50;;;;;;;-1.98;81.93;100369.41;105982;1275;74805;-83
2023/01/13 12:34:32;;;;;;;38.90;19.50;;;;;;;-1.99;81.70;100361.66;105936;1275;72414;-83
2023/01/13 12:37:15;;;;;;;30.40;19.30;;;;;;;-2.14;82.16;100362.71;105438;1276;74891;-85
2023/01/13 12:40:03;;;;;;;35.10;20.70;;;;;;;-2.27;82.56;100356.86;105070;1275;62216;-86
2023/01/13 12:45:45;;;;;;;30.00;18.00;;;;;;;-2.31;82.96;100352.75;106094;1276;74047;-86
2023/01/13 12:48:53;;;;;;;26.10;17.20;;;;;;;-2.24;82.94;100352.58;106238;1275;71554;-85
2023/01/13 12:52:07;;;;;;;27.90;18.60;;;;;;;-2.26;83.33;100353.73;106803;1276;73823;-85